Terminal Aerodrome Forecast
Issued by NWS

Home | Current Version | Previous Version | Graphics & Text | Print | Product List | Glossary On
Versions: 1 2 3 4 5 6 7 8 9 10 11 12 13 14 15 16 17 18 19 20 21 22 23 24 25 26
000
FTUS41 KCLE 070200 AAA
TAFFDY
TAF AMD
KFDY 070231Z 0703/0724 21010KT P6SM BKN045
     FM071000 21012KT P6SM VCSH OVC045
      TEMPO 0711/0713 3SM -TSRA OVC035CB
     FM071400 23012G22KT P6SM BKN045
     FM071800 23015G25KT P6SM VCTS BKN045CB
     FM072200 25012KT P6SM SCT045 BKN250=

USA.gov is the U.S. government's official web portal to all federal, state and local government web resources and services.